GLO1519 SBBE-SBGR
Flight info
| Callsign | GLO1519 |
|---|---|
| Flight time | N/A |
| Altitude | 37000 |
| Route | ANGIM UZ37 PULUV UZ2 MULUV UZ38 VUNOX |
| Aircraft | B738/M-SDFGIKLORWXY/LB1 |
Departure
| Time | 2026-05-06 16:28 |
|---|---|
| Airport | Val de Cans/Júlio Cezar Ribeiro International Airport (SBBE) |
Arrival
| Time | N/A |
|---|---|
| Airport | São Paulo/Guarulhos–Governor André Franco Montoro International Airport (SBGR) |
| Time | Latitude | Longitude | Altitude | Speed | Heading |
|---|---|---|---|---|---|
| 2026-05-06 16:15 | -1.38996 | -48.47886 | 42 ft | 0 kts | 275° |
| 2026-05-06 16:15 | -1.38995 | -48.47891 | 42 ft | 0 kts | 275° |
| 2026-05-06 16:21 | -1.38997 | -48.47873 | 42 ft | 4 kts | 280° |
| 2026-05-06 16:22 | -1.39004 | -48.47847 | 42 ft | 4 kts | 295° |
| 2026-05-06 16:22 | -1.39018 | -48.47827 | 42 ft | 4 kts | 334° |
| 2026-05-06 16:22 | -1.39030 | -48.47823 | 42 ft | 1 kts | 5° |
| 2026-05-06 16:24 | -1.39020 | -48.47822 | 42 ft | 4 kts | 5° |
| 2026-05-06 16:24 | -1.38972 | -48.47818 | 42 ft | 9 kts | 5° |
| 2026-05-06 16:24 | -1.38893 | -48.47811 | 42 ft | 13 kts | 5° |
| 2026-05-06 16:25 | -1.38789 | -48.47802 | 42 ft | 17 kts | 5° |
| 2026-05-06 16:25 | -1.38680 | -48.47814 | 40 ft | 16 kts | 303° |
| 2026-05-06 16:25 | -1.38670 | -48.47925 | 40 ft | 16 kts | 265° |
| 2026-05-06 16:25 | -1.38674 | -48.48032 | 43 ft | 15 kts | 268° |
| 2026-05-06 16:26 | -1.38674 | -48.48136 | 41 ft | 15 kts | 269° |
| 2026-05-06 16:26 | -1.38689 | -48.48232 | 43 ft | 14 kts | 235° |
| 2026-05-06 16:26 | -1.38752 | -48.48303 | 43 ft | 13 kts | 223° |
| 2026-05-06 16:26 | -1.38810 | -48.48363 | 43 ft | 11 kts | 242° |
| 2026-05-06 16:27 | -1.38819 | -48.48436 | 42 ft | 11 kts | 267° |
| 2026-05-06 16:27 | -1.38771 | -48.48465 | 41 ft | 10 kts | 30° |
| 2026-05-06 16:27 | -1.38674 | -48.48353 | 40 ft | 50 kts | 46° |
| 2026-05-06 16:27 | -1.38253 | -48.47942 | 43 ft | 118 kts | 44° |
| 2026-05-06 16:28 | -1.37536 | -48.47222 | 57 ft | 172 kts | 45° |
| 2026-05-06 16:28 | -1.36664 | -48.46346 | 684 ft | 180 kts | 45° |
| 2026-05-06 16:28 | -1.35778 | -48.45427 | 1381 ft | 193 kts | 50° |
| 2026-05-06 16:28 | -1.35281 | -48.44091 | 1626 ft | 224 kts | 91° |
| 2026-05-06 16:29 | -1.35864 | -48.42605 | 2055 ft | 241 kts | 129° |
| 2026-05-06 16:29 | -1.37270 | -48.41635 | 2547 ft | 259 kts | 161° |
| 2026-05-06 16:29 | -1.39047 | -48.41317 | 3242 ft | 267 kts | 173° |
| 2026-05-06 16:29 | -1.40905 | -48.41181 | 4141 ft | 268 kts | 175° |
| 2026-05-06 16:30 | -1.42777 | -48.41065 | 4996 ft | 270 kts | 174° |
| 2026-05-06 16:30 | -1.44050 | -48.40977 | 5560 ft | 272 kts | 174° |
| 2026-05-06 16:30 | -1.46566 | -48.40779 | 6664 ft | 275 kts | 173° |
| 2026-05-06 16:30 | -1.48478 | -48.40612 | 7459 ft | 277 kts | 173° |
| 2026-05-06 16:31 | -1.50409 | -48.40433 | 8218 ft | 280 kts | 172° |
| 2026-05-06 16:31 | -1.52360 | -48.40247 | 8959 ft | 283 kts | 172° |
| 2026-05-06 16:31 | -1.54333 | -48.40055 | 9679 ft | 286 kts | 171° |
| 2026-05-06 16:31 | -1.56333 | -48.39858 | 10289 ft | 294 kts | 171° |
| 2026-05-06 16:32 | -1.58458 | -48.39645 | 10449 ft | 317 kts | 171° |
| 2026-05-06 16:32 | -1.60707 | -48.39421 | 10809 ft | 331 kts | 171° |
| 2026-05-06 16:32 | -1.63023 | -48.39173 | 11399 ft | 336 kts | 169° |
| 2026-05-06 16:32 | -1.65308 | -48.38807 | 12056 ft | 338 kts | 166° |
| 2026-05-06 16:33 | -1.67667 | -48.38376 | 12691 ft | 343 kts | 166° |
| 2026-05-06 16:33 | -1.69993 | -48.37946 | 13311 ft | 346 kts | 166° |
| 2026-05-06 16:33 | -1.72372 | -48.37515 | 13956 ft | 349 kts | 166° |
| 2026-05-06 16:34 | -1.77188 | -48.36668 | 15187 ft | 354 kts | 167° |
| 2026-05-06 16:34 | -1.79627 | -48.36244 | 15780 ft | 357 kts | 167° |
| 2026-05-06 16:34 | -1.82082 | -48.35806 | 16369 ft | 360 kts | 167° |
| 2026-05-06 16:34 | -1.84554 | -48.35342 | 16919 ft | 363 kts | 167° |
| 2026-05-06 16:35 | -1.87047 | -48.34866 | 17465 ft | 365 kts | 167° |
| 2026-05-06 16:35 | -1.89554 | -48.34387 | 18003 ft | 368 kts | 167° |
| 2026-05-06 16:35 | -1.92080 | -48.33907 | 18524 ft | 371 kts | 167° |
| 2026-05-06 16:35 | -1.94625 | -48.33424 | 19016 ft | 374 kts | 168° |
| 2026-05-06 16:36 | -1.97198 | -48.32937 | 19478 ft | 378 kts | 168° |
| 2026-05-06 16:36 | -1.99796 | -48.32447 | 19931 ft | 381 kts | 168° |
| 2026-05-06 16:36 | -2.02415 | -48.31952 | 20380 ft | 384 kts | 168° |
| 2026-05-06 16:36 | -2.05059 | -48.31489 | 20822 ft | 388 kts | 170° |
| 2026-05-06 16:37 | -2.07746 | -48.31116 | 21243 ft | 391 kts | 172° |
| 2026-05-06 16:37 | -2.10460 | -48.30780 | 21656 ft | 394 kts | 172° |
| 2026-05-06 16:37 | -2.13195 | -48.30450 | 22054 ft | 397 kts | 172° |
| 2026-05-06 16:37 | -2.15949 | -48.30116 | 22446 ft | 400 kts | 172° |
| 2026-05-06 16:38 | -2.18727 | -48.29772 | 22829 ft | 403 kts | 172° |
| 2026-05-06 16:38 | -2.21484 | -48.29425 | 23197 ft | 406 kts | 172° |
| 2026-05-06 16:38 | -2.24302 | -48.29066 | 23565 ft | 409 kts | 172° |
| 2026-05-06 16:38 | -2.27130 | -48.28703 | 23920 ft | 411 kts | 172° |
| 2026-05-06 16:39 | -2.29977 | -48.28336 | 24256 ft | 414 kts | 172° |
| 2026-05-06 16:39 | -2.32843 | -48.27967 | 24613 ft | 416 kts | 172° |
| 2026-05-06 16:39 | -2.35719 | -48.27596 | 25012 ft | 417 kts | 172° |
| 2026-05-06 16:39 | -2.38607 | -48.27223 | 25403 ft | 418 kts | 172° |
| 2026-05-06 16:40 | -2.41495 | -48.26850 | 25779 ft | 419 kts | 172° |
| 2026-05-06 16:40 | -2.44389 | -48.26477 | 26122 ft | 420 kts | 172° |
| 2026-05-06 16:40 | -2.47291 | -48.26103 | 26471 ft | 421 kts | 172° |
| 2026-05-06 16:40 | -2.50209 | -48.25726 | 26807 ft | 422 kts | 172° |
| 2026-05-06 16:41 | -2.53126 | -48.25350 | 27149 ft | 423 kts | 172° |
| 2026-05-06 16:41 | -2.56062 | -48.24972 | 27470 ft | 425 kts | 172° |
| 2026-05-06 16:41 | -2.58996 | -48.24593 | 27801 ft | 426 kts | 172° |
| 2026-05-06 16:41 | -2.61899 | -48.24219 | 28127 ft | 427 kts | 172° |
| 2026-05-06 16:42 | -2.64854 | -48.23837 | 28438 ft | 428 kts | 172° |
| 2026-05-06 16:42 | -2.67818 | -48.23455 | 28743 ft | 429 kts | 172° |
| 2026-05-06 16:42 | -2.70784 | -48.23072 | 29037 ft | 430 kts | 172° |
| 2026-05-06 16:42 | -2.73757 | -48.22688 | 29337 ft | 432 kts | 172° |
| 2026-05-06 16:43 | -2.76739 | -48.22304 | 29631 ft | 433 kts | 172° |
| 2026-05-06 16:43 | -2.79733 | -48.21917 | 29920 ft | 434 kts | 172° |
| 2026-05-06 16:43 | -2.82738 | -48.21529 | 30237 ft | 434 kts | 172° |
| 2026-05-06 16:43 | -2.85739 | -48.21142 | 30494 ft | 435 kts | 172° |
| 2026-05-06 16:44 | -2.88752 | -48.20752 | 30667 ft | 438 kts | 172° |
| 2026-05-06 16:44 | -2.91784 | -48.20346 | 30850 ft | 440 kts | 172° |
| 2026-05-06 16:44 | -2.94821 | -48.19929 | 31039 ft | 442 kts | 172° |
| 2026-05-06 16:44 | -2.97876 | -48.19506 | 31246 ft | 443 kts | 172° |
| 2026-05-06 16:45 | -3.00883 | -48.19089 | 31453 ft | 445 kts | 172° |
| 2026-05-06 16:45 | -3.03953 | -48.18665 | 31624 ft | 447 kts | 172° |
| 2026-05-06 16:45 | -3.07038 | -48.18240 | 31810 ft | 448 kts | 172° |
| 2026-05-06 16:45 | -3.10135 | -48.17814 | 32013 ft | 449 kts | 172° |
| 2026-05-06 16:46 | -3.13240 | -48.17388 | 32212 ft | 450 kts | 172° |
| 2026-05-06 16:46 | -3.16349 | -48.16962 | 32389 ft | 452 kts | 172° |
| 2026-05-06 16:46 | -3.19469 | -48.16533 | 32550 ft | 454 kts | 172° |
| 2026-05-06 16:46 | -3.22598 | -48.16104 | 32774 ft | 453 kts | 172° |
| 2026-05-06 16:47 | -3.25707 | -48.15678 | 32991 ft | 452 kts | 172° |
| 2026-05-06 16:47 | -3.31886 | -48.14829 | 32967 ft | 439 kts | 172° |
| 2026-05-06 16:48 | -3.37874 | -48.14007 | 32967 ft | 436 kts | 172° |
| 2026-05-06 16:48 | -3.43868 | -48.13184 | 32975 ft | 434 kts | 172° |
| 2026-05-06 16:49 | -3.49848 | -48.12363 | 32977 ft | 433 kts | 173° |
| 2026-05-06 16:49 | -3.55850 | -48.11914 | 32971 ft | 432 kts | 178° |
| 2026-05-06 16:50 | -3.61871 | -48.11750 | 32979 ft | 433 kts | 179° |
| 2026-05-06 16:50 | -3.67866 | -48.11573 | 32969 ft | 434 kts | 178° |
| 2026-05-06 16:51 | -3.73908 | -48.11352 | 32970 ft | 435 kts | 178° |
| 2026-05-06 16:51 | -3.79950 | -48.11110 | 32977 ft | 435 kts | 178° |
| 2026-05-06 16:52 | -3.86005 | -48.10865 | 32974 ft | 435 kts | 178° |
| 2026-05-06 16:52 | -3.92051 | -48.10620 | 32974 ft | 435 kts | 178° |
| 2026-05-06 16:53 | -3.98099 | -48.10376 | 32976 ft | 435 kts | 178° |
| 2026-05-06 16:53 | -4.04154 | -48.10133 | 32971 ft | 435 kts | 178° |
| 2026-05-06 16:54 | -4.10172 | -48.09890 | 32977 ft | 435 kts | 178° |
| 2026-05-06 16:54 | -4.16230 | -48.09646 | 32974 ft | 435 kts | 178° |
| 2026-05-06 16:55 | -4.22292 | -48.09402 | 32973 ft | 435 kts | 178° |
| 2026-05-06 16:55 | -4.28339 | -48.09158 | 32975 ft | 435 kts | 178° |
| 2026-05-06 16:56 | -4.34393 | -48.08914 | 32973 ft | 435 kts | 178° |
| 2026-05-06 16:56 | -4.40395 | -48.08672 | 32973 ft | 434 kts | 178° |
| 2026-05-06 16:57 | -4.46434 | -48.08428 | 32970 ft | 434 kts | 178° |
| 2026-05-06 16:57 | -4.52473 | -48.08185 | 32973 ft | 434 kts | 178° |
| 2026-05-06 16:58 | -4.58511 | -48.07941 | 32978 ft | 434 kts | 178° |
| 2026-05-06 16:58 | -4.63533 | -48.07739 | 32975 ft | 434 kts | 178° |
| 2026-05-06 16:59 | -4.69572 | -48.07495 | 32971 ft | 434 kts | 178° |
| 2026-05-06 16:59 | -4.75603 | -48.07251 | 32971 ft | 434 kts | 178° |
| 2026-05-06 17:00 | -4.81641 | -48.07004 | 32973 ft | 434 kts | 178° |
| 2026-05-06 17:00 | -4.87677 | -48.06755 | 32972 ft | 434 kts | 178° |
| 2026-05-06 17:01 | -4.93709 | -48.06506 | 32974 ft | 434 kts | 178° |
| 2026-05-06 17:01 | -4.99702 | -48.06260 | 32977 ft | 434 kts | 178° |
| 2026-05-06 17:02 | -5.05732 | -48.06011 | 32971 ft | 434 kts | 178° |
| 2026-05-06 17:02 | -5.11769 | -48.05763 | 32966 ft | 433 kts | 178° |
| 2026-05-06 17:03 | -5.17794 | -48.05515 | 32973 ft | 433 kts | 178° |
| 2026-05-06 17:03 | -5.23819 | -48.05267 | 32971 ft | 433 kts | 178° |
| 2026-05-06 17:04 | -5.29838 | -48.05019 | 32976 ft | 432 kts | 178° |
| 2026-05-06 17:04 | -5.35854 | -48.04771 | 32973 ft | 432 kts | 178° |
| 2026-05-06 17:05 | -5.41868 | -48.04523 | 32973 ft | 432 kts | 178° |
| 2026-05-06 17:05 | -5.47872 | -48.04277 | 32974 ft | 432 kts | 178° |
| 2026-05-06 17:06 | -5.53838 | -48.04032 | 32972 ft | 431 kts | 178° |
| 2026-05-06 17:06 | -5.59829 | -48.03787 | 32972 ft | 431 kts | 178° |
| 2026-05-06 17:07 | -5.65816 | -48.03541 | 32969 ft | 430 kts | 178° |
| 2026-05-06 17:07 | -5.71808 | -48.03295 | 32984 ft | 431 kts | 178° |
| 2026-05-06 17:08 | -5.77819 | -48.03048 | 32965 ft | 433 kts | 178° |
| 2026-05-06 17:08 | -5.83804 | -48.02802 | 32974 ft | 432 kts | 178° |
| 2026-05-06 17:09 | -5.89813 | -48.02555 | 32960 ft | 432 kts | 178° |
| 2026-05-06 17:09 | -5.95809 | -48.02309 | 32971 ft | 430 kts | 178° |
| 2026-05-06 17:10 | -6.01783 | -48.02063 | 32972 ft | 429 kts | 178° |
| 2026-05-06 17:10 | -6.07739 | -48.01818 | 32977 ft | 428 kts | 178° |
| 2026-05-06 17:11 | -6.13690 | -48.01573 | 32972 ft | 427 kts | 178° |
| 2026-05-06 17:11 | -6.19637 | -48.01329 | 32960 ft | 428 kts | 178° |
| 2026-05-06 17:12 | -6.25582 | -48.01084 | 32966 ft | 427 kts | 178° |
| 2026-05-06 17:12 | -6.31528 | -48.00839 | 32964 ft | 428 kts | 178° |
| 2026-05-06 17:13 | -6.37493 | -48.00594 | 32958 ft | 428 kts | 178° |
| 2026-05-06 17:13 | -6.43418 | -48.00350 | 32970 ft | 429 kts | 178° |
| 2026-05-06 17:14 | -6.49397 | -48.00104 | 32963 ft | 430 kts | 178° |
| 2026-05-06 17:14 | -6.55386 | -47.99857 | 32966 ft | 431 kts | 178° |
| 2026-05-06 17:15 | -6.61380 | -47.99610 | 32933 ft | 432 kts | 178° |
| 2026-05-06 17:15 | -6.67377 | -47.99362 | 32926 ft | 431 kts | 178° |
| 2026-05-06 17:16 | -6.73366 | -47.99116 | 32932 ft | 430 kts | 178° |
| 2026-05-06 17:16 | -6.79341 | -47.98869 | 32932 ft | 429 kts | 178° |
| 2026-05-06 17:17 | -6.85255 | -47.98625 | 32934 ft | 427 kts | 179° |
| 2026-05-06 17:17 | -6.91193 | -47.98380 | 32935 ft | 426 kts | 179° |
| 2026-05-06 17:18 | -6.97122 | -47.98135 | 32929 ft | 425 kts | 179° |
| 2026-05-06 17:18 | -7.03035 | -47.97891 | 32938 ft | 425 kts | 179° |
| 2026-05-06 17:19 | -7.08940 | -47.97648 | 32934 ft | 425 kts | 179° |
| 2026-05-06 17:19 | -7.14850 | -47.97404 | 32937 ft | 425 kts | 179° |
| 2026-05-06 17:20 | -7.20728 | -47.97161 | 32944 ft | 425 kts | 179° |
| 2026-05-06 17:20 | -7.26656 | -47.96916 | 32945 ft | 426 kts | 179° |
| 2026-05-06 17:21 | -7.32586 | -47.96671 | 32949 ft | 426 kts | 179° |
| 2026-05-06 17:21 | -7.38516 | -47.96426 | 32943 ft | 427 kts | 179° |
| 2026-05-06 17:22 | -7.44457 | -47.96180 | 32944 ft | 427 kts | 179° |
| 2026-05-06 17:22 | -7.50402 | -47.95934 | 32942 ft | 427 kts | 179° |
| 2026-05-06 17:23 | -7.56343 | -47.95688 | 32974 ft | 426 kts | 179° |
| 2026-05-06 17:23 | -7.62267 | -47.95443 | 32999 ft | 426 kts | 179° |
| 2026-05-06 17:24 | -7.68189 | -47.95198 | 33000 ft | 426 kts | 179° |
| 2026-05-06 17:24 | -7.74126 | -47.94952 | 32999 ft | 426 kts | 179° |
| 2026-05-06 17:25 | -7.80017 | -47.94708 | 32999 ft | 427 kts | 179° |
| 2026-05-06 17:25 | -7.85950 | -47.94458 | 33011 ft | 426 kts | 179° |
| 2026-05-06 17:26 | -7.91881 | -47.94205 | 33007 ft | 426 kts | 179° |
| 2026-05-06 17:26 | -7.97807 | -47.93953 | 33012 ft | 426 kts | 179° |
| 2026-05-06 17:27 | -8.03742 | -47.93700 | 33010 ft | 426 kts | 179° |
| 2026-05-06 17:27 | -8.09627 | -47.93450 | 33008 ft | 426 kts | 179° |
| 2026-05-06 17:28 | -8.15553 | -47.93198 | 33010 ft | 426 kts | 179° |
| 2026-05-06 17:28 | -8.21471 | -47.92946 | 33012 ft | 426 kts | 179° |
| 2026-05-06 17:29 | -8.27390 | -47.92694 | 33010 ft | 426 kts | 179° |
| 2026-05-06 17:29 | -8.33310 | -47.92442 | 33008 ft | 425 kts | 179° |
| 2026-05-06 17:30 | -8.39227 | -47.92194 | 33014 ft | 425 kts | 179° |
| 2026-05-06 17:30 | -8.45144 | -47.91950 | 33008 ft | 425 kts | 179° |
| 2026-05-06 17:31 | -8.51055 | -47.91706 | 33018 ft | 424 kts | 179° |
| 2026-05-06 17:31 | -8.56915 | -47.91464 | 33021 ft | 424 kts | 179° |
| 2026-05-06 17:32 | -8.62819 | -47.91219 | 33019 ft | 424 kts | 179° |
| 2026-05-06 17:32 | -8.68714 | -47.90975 | 33020 ft | 424 kts | 179° |